Weather History for Glendive, MT

Change the Weather History Date:

Friday, November 1, 2013

  Actual Average Record
Temperature  
Mean Temperature 42 °F -  
Max Temperature 53 °F 45 °F 73 °F (2008)
Min Temperature 28 °F 24 °F 8 °F (2002)
Degree Days  
Heating Degree Days 24    
Moisture  
Dew Point 28 °F    
Average Humidity 61    
Maximum Humidity 81    
Minimum Humidity 35    
Precipitation  
Precipitation 0.00 in - - ()
Sea Level Pressure  
Sea Level Pressure 29.93 in    
Wind  
Wind Speed 18 mph (WNW)    
Max Wind Speed 31 mph    
Max Gust Speed 39 mph    
Visibility 10 miles    
Events      
Averages and records for this station are not official NWS values.
T = Trace of Precipitation, MM = Missing Value Source: NWS Daily Summary

Daily Weather History Graph

Daily Weather History Graph

Search for Another Location

Airport:

Trip Planner

Search our weather history database for the weather conditions in past years. The results will help you decide how hot, cold, wet, or windy it might be!

Date:

Astronomy

Nov. 01, 2013 Rise Set
Actual Time 7:42 AM MDT 5:42 PM MDT
Civil Twilight 7:10 AM MDT 6:14 PM MDT
Nautical Twilight 6:34 AM MDT 6:50 PM MDT
Astronomical Twilight 5:59 AM MDT 7:25 PM MDT
Moon 5:30 AM MDT (11/1) 4:41 PM MDT (11/1)
Length of Visible Light 11h 03m
Length of Day
9h 59m
Waning Crescent, 4% of the Moon is Illuminated
Nov 1
Waning Crescent
Nov 3
New
Nov 9
First Quarter
Nov 17
Full
Nov 25
Last Quarter

Hourly Weather History & Observations

Time (MDT) Temp. Windchill Dew Point Humidity Pressure Visibility Wind Dir Wind Speed Gust Speed Precip Events Conditions
12:15 AM 39.2 °F 30.8 °F 33.8 °F 81% 29.75 in 10.0 mi West 15.0 mph 19.6 mph N/A   Mostly Cloudy
12:35 AM 39.2 °F 31.2 °F 33.8 °F 81% 29.75 in 10.0 mi West 13.8 mph 18.4 mph N/A   Scattered Clouds
12:55 AM 39.2 °F 31.2 °F 33.8 °F 81% 29.75 in 10.0 mi West 13.8 mph - N/A   Partly Cloudy
1:15 AM 39.2 °F 30.2 °F 33.8 °F 81% 29.75 in 10.0 mi West 17.3 mph - N/A   Clear
1:35 AM 39.2 °F 30.2 °F 33.8 °F 81% 29.76 in 10.0 mi West 17.3 mph - N/A   Clear
1:55 AM 39.2 °F 29.8 °F 32.0 °F 75% 29.77 in 10.0 mi West 18.4 mph - N/A   Partly Cloudy
2:15 AM 41.0 °F 32.5 °F 32.0 °F 70% 29.77 in 10.0 mi West 17.3 mph - N/A   Mostly Cloudy
2:35 AM 42.8 °F 34.8 °F 32.0 °F 66% 29.78 in 10.0 mi West 17.3 mph 23.0 mph N/A   Mostly Cloudy
2:55 AM 42.8 °F 33.8 °F 32.0 °F 66% 29.78 in 10.0 mi West 21.9 mph 26.5 mph N/A   Mostly Cloudy
3:15 AM 42.8 °F 34.5 °F 32.0 °F 66% 29.78 in 10.0 mi West 18.4 mph 24.2 mph N/A   Scattered Clouds
3:55 AM 41.0 °F 32.8 °F 30.2 °F 65% 29.77 in 10.0 mi West 16.1 mph 20.7 mph N/A   Clear
4:15 AM 41.0 °F 31.4 °F 30.2 °F 65% 29.78 in 10.0 mi West 21.9 mph 27.6 mph N/A   Clear
4:35 AM 41.0 °F 31.6 °F 30.2 °F 65% 29.79 in 10.0 mi West 20.7 mph 27.6 mph N/A   Clear
4:55 AM 39.2 °F 28.5 °F 30.2 °F 70% 29.80 in 10.0 mi West 24.2 mph 31.1 mph N/A   Clear
5:15 AM 39.2 °F 28.5 °F 30.2 °F 70% 29.81 in 10.0 mi West 24.2 mph 28.8 mph N/A   Clear
5:35 AM 39.2 °F 28.0 °F 30.2 °F 70% 29.81 in 10.0 mi WNW 26.5 mph 32.2 mph N/A   Clear
5:55 AM 39.2 °F 29.0 °F 30.2 °F 70% 29.82 in 10.0 mi WNW 21.9 mph 29.9 mph N/A   Mostly Cloudy
6:15 AM 39.2 °F 27.6 °F 30.2 °F 70% 29.83 in 10.0 mi WNW 28.8 mph 35.7 mph N/A   Overcast
6:35 AM 39.2 °F 28.3 °F 30.2 °F 70% 29.84 in 10.0 mi WNW 25.3 mph 36.8 mph N/A   Overcast
6:55 AM 39.2 °F 29.6 °F 28.4 °F 65% 29.85 in 10.0 mi NW 19.6 mph 31.1 mph N/A   Mostly Cloudy
7:15 AM 39.2 °F 27.2 °F 28.4 °F 65% 29.86 in 10.0 mi NW 31.1 mph 39.1 mph N/A   Mostly Cloudy
7:35 AM 39.2 °F 27.2 °F 28.4 °F 65% 29.87 in 10.0 mi NW 31.1 mph 38.0 mph N/A   Mostly Cloudy
7:55 AM 37.4 °F 26.1 °F 28.4 °F 70% 29.90 in 10.0 mi NW 24.2 mph 34.5 mph N/A   Scattered Clouds
8:15 AM 37.4 °F 25.9 °F 28.4 °F 70% 29.92 in 10.0 mi WNW 25.3 mph 35.7 mph N/A   Scattered Clouds
8:35 AM 37.4 °F 25.9 °F 28.4 °F 70% 29.93 in 10.0 mi NW 25.3 mph 32.2 mph N/A   Overcast
8:55 AM 37.4 °F 26.6 °F 28.4 °F 70% 29.95 in 10.0 mi NW 21.9 mph 32.2 mph N/A   Overcast
9:15 AM 39.2 °F 28.5 °F 28.4 °F 65% 29.96 in 10.0 mi NW 24.2 mph 32.2 mph N/A   Partly Cloudy
9:35 AM 39.2 °F 28.5 °F 28.4 °F 65% 29.97 in 10.0 mi NW 24.2 mph 29.9 mph N/A   Clear
10:35 AM 42.8 °F 33.3 °F 28.4 °F 57% 29.98 in 10.0 mi NW 24.2 mph 29.9 mph N/A   Clear
10:55 AM 44.6 °F 35.9 °F 28.4 °F 53% 29.98 in 10.0 mi NW 23.0 mph 29.9 mph N/A   Clear
11:15 AM 44.6 °F 35.3 °F 26.6 °F 49% 29.99 in 10.0 mi NW 26.5 mph 29.9 mph N/A   Clear
11:35 AM 46.4 °F 38.1 °F 28.4 °F 50% 30.01 in 10.0 mi NW 24.2 mph 32.2 mph N/A   Clear
11:55 AM 46.4 °F 39.0 °F 28.4 °F 50% 30.01 in 10.0 mi NW 19.6 mph - N/A   Clear
12:15 PM 48.2 °F - 28.4 °F 46% 30.01 in 10.0 mi WNW 23.0 mph 28.8 mph N/A   Clear
12:35 PM 48.2 °F - 28.4 °F 46% 30.01 in 10.0 mi NW 21.9 mph 29.9 mph N/A   Clear
12:55 PM 50.0 °F - 30.2 °F 47% 30.01 in 10.0 mi NW 23.0 mph 31.1 mph N/A   Clear
1:15 PM 50.0 °F - 28.4 °F 43% 30.01 in 10.0 mi NW 23.0 mph 29.9 mph N/A   Clear
1:35 PM 51.8 °F - 28.4 °F 41% 30.01 in 10.0 mi NW 19.6 mph 28.8 mph N/A   Mostly Cloudy
2:15 PM 51.8 °F - 28.4 °F 41% 30.02 in 10.0 mi NW 20.7 mph 27.6 mph N/A   Scattered Clouds
2:35 PM 51.8 °F - 28.4 °F 41% 30.02 in 10.0 mi NW 16.1 mph 24.2 mph N/A   Scattered Clouds
2:55 PM 53.6 °F - 28.4 °F 38% 30.02 in 10.0 mi WNW 17.3 mph 28.8 mph N/A   Mostly Cloudy
3:15 PM 51.8 °F - 26.6 °F 38% 30.01 in 10.0 mi WNW 20.7 mph 26.5 mph N/A   Partly Cloudy
3:35 PM 51.8 °F - 26.6 °F 38% 30.01 in 10.0 mi WNW 17.3 mph 25.3 mph N/A   Clear
3:55 PM 51.8 °F - 24.8 °F 35% 30.01 in 10.0 mi NW 20.7 mph 29.9 mph N/A   Clear
4:15 PM 51.8 °F - 24.8 °F 35% 30.01 in 10.0 mi WNW 19.6 mph 26.5 mph N/A   Clear
4:35 PM 51.8 °F - 24.8 °F 35% 30.01 in 10.0 mi NW 16.1 mph 23.0 mph N/A   Clear
4:55 PM 50.0 °F - 24.8 °F 37% 30.02 in 10.0 mi NW 16.1 mph - N/A   Clear
6:15 PM 42.8 °F 37.0 °F 24.8 °F 49% 30.03 in 10.0 mi West 10.4 mph - N/A   Clear
6:55 PM 39.2 °F 32.5 °F 24.8 °F 56% 30.04 in 10.0 mi West 10.4 mph - N/A   Clear
7:35 PM 37.4 °F 33.8 °F 23.0 °F 56% 30.04 in 10.0 mi NNW 4.6 mph - N/A   Clear
7:55 PM 39.2 °F 32.5 °F 23.0 °F 52% 30.04 in 10.0 mi WNW 10.4 mph - N/A   Clear
8:15 PM 35.6 °F 28.6 °F 23.0 °F 60% 30.04 in 10.0 mi WNW 9.2 mph - N/A   Clear
8:35 PM 33.8 °F 27.7 °F 23.0 °F 65% 30.04 in 10.0 mi WNW 6.9 mph - N/A   Clear
8:55 PM 35.6 °F 29.2 °F 23.0 °F 60% 30.04 in 10.0 mi WNW 8.1 mph - N/A   Clear
9:15 PM 32.0 °F 24.8 °F 24.8 °F 75% 30.04 in 10.0 mi WNW 8.1 mph - N/A   Clear
9:35 PM 33.8 °F 27.0 °F 23.0 °F 65% 30.04 in 10.0 mi WNW 8.1 mph - N/A   Clear
9:55 PM 30.2 °F 21.9 °F 21.2 °F 69% 30.04 in 10.0 mi WNW 9.2 mph - N/A   Clear
10:35 PM 30.2 °F 22.6 °F 21.2 °F 69% 30.04 in 10.0 mi WNW 8.1 mph - N/A   Clear
10:55 PM 30.2 °F 22.6 °F 23.0 °F 75% 30.04 in 10.0 mi NW 8.1 mph - N/A   Clear
11:15 PM 32.0 °F - 21.2 °F 64% 30.05 in 10.0 mi Calm Calm - N/A   Clear
11:35 PM 30.2 °F 25.4 °F 23.0 °F 75% 30.05 in 10.0 mi SSW 4.6 mph - N/A   Clear
11:55 PM 28.4 °F 24.6 °F 21.2 °F 74% 30.05 in 10.0 mi WSW 3.5 mph - N/A   Clear